Station: Victoria River Downs  

  Atmospheric Gas Attenuation - ITU Rec 676-11   ----------------- dB/100km -----------------
Date Time Temp RH % AH g/m3 Dew Point Wind Direction Speed kph Gust kph Barometer mB Rainfall Since 9am 24GHz 47GHz 76GHz 122GHz 134GHz 241GHz
08/05 12:00 26.1 35 8.57 9.5 13 22 1015.6 0 18.9 22.7 34.2 89.6 84.1 289.8
08/05 11:50 25.9 36 8.72 9.7 13 19 1015.7 0 19.3 22.9 34.8 91.2 86.0 296.5
08/05 11:40 25.4 35 8.24 8.8 11 15 1015.9 0 18.3 22.4 33.4 87.4 81.1 279.4
08/05 11:30 25.3 36 8.43 9.2 15 24 1016.1 0 18.7 22.7 34.1 89.2 83.4 287.2
08/05 11:20 25.4 36 8.48 9.3 19 24 1016.3 0 18.8 22.7 34.2 89.6 83.9 288.9
08/05 11:10 24.9 36 8.24 8.8 20 26 1016.4 0 18.3 22.5 33.6 88.0 81.7 281.2
08/05 11:00 25.2 38 8.85 9.9 15 22 1016.6 0 19.6 23.3 35.6 93.3 88.3 304.4
08/05 10:50 24.6 37 8.33 9 15 22 1016.8 0 18.5 22.7 34.0 89.1 83.0 285.9
08/05 10:40 24.5 37 8.28 8.9 15 20 1016.9 0 18.4 22.7 33.9 88.8 82.6 284.3
08/05 10:30 24.1 37 8.1 8.5 17 26 1017 0 18.1 22.5 33.4 87.6 80.9 278.5
08/05 10:20 24.1 39 8.53 9.3 22 26 1017.1 0 19.0 23.1 34.9 91.6 85.8 295.7
08/05 10:10 23.5 39 8.25 8.8 15 20 1017.1 0 18.4 22.9 34.2 89.6 83.3 286.6
08/05 10:00 23.7 41 8.77 9.7 17 28 1017.2 0 19.5 23.6 36.0 94.3 89.1 307.0
08/05 09:50 22.7 40 8.08 8.4 20 28 1017.3 0 18.1 22.9 34.0 88.9 82.1 282.6
08/05 09:40 22.3 48 9.48 10.8 9 13 1017.3 0 21.0 25.0 39.2 102.9 99.2 342.2
08/05 09:30 21.3 46 8.57 9.2 15 24 1017.2 0 19.2 23.9 36.3 95.2 89.4 307.8
08/05 09:20 21.1 48 8.84 9.7 15 20 1017.3 0 19.7 24.4 37.4 98.1 92.9 320.0
08/05 09:10 20.6 48 8.59 9.2 17 20 1017.2 0 19.2 24.1 36.7 96.2 90.4 311.3
08/05 09:00 20.4 50 8.84 9.6 13 22 1017 0 19.8 24.6 37.7 98.9 93.7 322.7
08/05 08:50 20.3 53 9.32 10.4 9 13 1016.9 0 20.8 25.3 39.5 103.8 99.7 343.8
08/05 08:40 19.5 55 9.23 10.2 13 19 1017 0 20.6 25.4 39.6 103.9 99.6 343.3
08/05 08:30 18.8 57 9.18 10.1 9 17 1017 0 20.6 25.5 39.7 104.3 99.8 344.2
08/05 08:20 18.3 59 9.22 10.2 9 13 1017 0 20.7 25.7 40.2 105.4 101.0 348.1
08/05 08:10 17.7 62 9.35 10.3 7 11 1016.7 0 21.0 26.1 40.9 107.5 103.4 356.5
08/05 08:00 17.2 63 9.23 10.1 4 7 1016.7 0 20.8 26.0 40.7 106.9 102.5 353.4
08/05 07:50 16.7 66 9.38 10.3 6 7 1016.7 0 21.1 26.4 41.6 109.2 105.1 362.4
08/05 07:40 16 68 9.26 10.1 2 6 1016.7 0 20.9 26.4 41.5 108.9 104.5 360.1
08/05 07:30 15.6 69 9.18 9.9 4 7 1016.6 0 20.7 26.4 41.4 108.6 104.0 358.3
08/05 07:20 15.2 71 9.22 10 0 4 1016.5 0 20.8 26.6 41.7 109.6 105.0 361.9
08/05 07:10 15 70 8.98 9.6 4 7 1016.3 0 20.3 26.3 40.8 107.2 102.1 351.6
08/05 07:00 15.1 69 8.9 9.5 6 7 1016.3 0 20.2 26.1 40.5 106.2 100.9 347.5
08/05 06:50 15.2 69 8.96 9.6 6 6 1016.2 0 20.3 26.2 40.7 106.7 101.6 349.8
08/05 06:40 15.3 69 9.01 9.7 4 6 1016.1 0 20.4 26.2 40.8 107.1 102.1 351.6
08/05 06:30 15.3 68 8.88 9.4 4 6 1016 0 20.1 26.0 40.3 105.7 100.4 345.6
08/05 06:20 15.4 68 8.93 9.5 4 6 1016 0 20.2 26.1 40.4 106.1 100.9 347.5
08/05 06:10 15.2 69 8.96 9.6 4 4 1015.9 0 20.3 26.2 40.6 106.7 101.6 349.7
08/05 06:00 15.2 70 9.09 9.8 6 7 1015.9 0 20.6 26.4 41.2 108.1 103.3 355.7
08/05 05:50 14.8 72 9.12 9.8 6 7 1015.9 0 20.6 26.5 41.5 109.0 104.2 358.9
08/05 05:40 14.8 73 9.25 10 4 4 1015.8 0 20.9 26.8 42.0 110.4 105.9 365.0
08/05 05:30 14.2 76 9.28 10 4 6 1015.7 0 21.0 27.0 42.5 111.5 107.2 369.2
08/05 05:20 14.2 78 9.52 10.4 4 4 1015.6 0 21.5 27.4 43.4 114.2 110.4 380.5
08/05 05:10 13.9 77 9.23 9.9 0 0 1015.5 0 20.9 27.0 42.4 111.4 106.9 368.1
08/05 05:00 14.1 76 9.22 9.9 0 0 1015.4 0 20.9 26.9 42.3 111.0 106.5 366.7
08/05 04:50 14.3 74 9.09 9.7 0 0 1015.5 0 20.6 26.6 41.6 109.3 104.4 359.7
08/05 04:40 14.6 73 9.14 9.8 0 0 1015.5 0 20.7 26.6 41.7 109.4 104.7 360.7
08/05 04:30 15 70 8.98 9.6 0 0 1015.5 0 20.3 26.2 40.8 107.1 102.1 351.4
08/05 04:20 15.2 69 8.96 9.6 0 0 1015.5 0 20.3 26.2 40.6 106.7 101.5 349.6
08/05 04:10 15.6 67 8.91 9.5 0 0 1015.4 0 20.2 25.9 40.2 105.6 100.3 345.5
08/05 04:00 15.7 67 8.96 9.6 0 4 1015.5 0 20.3 26.0 40.4 106.0 100.9 347.4
08/05 03:50 15.7 67 8.96 9.6 2 4 1015.5 0 20.3 26.0 40.4 106.0 100.9 347.4
08/05 03:40 16.1 63 8.64 9.1 0 0 1015.5 0 19.6 25.4 38.9 102.1 96.2 331.2
08/05 03:30 16.4 63 8.79 9.3 2 6 1015.6 0 19.9 25.5 39.4 103.3 97.8 336.7
08/05 03:20 16.7 62 8.81 9.4 4 4 1015.6 0 19.9 25.5 39.3 103.1 97.7 336.3
08/05 03:10 16.8 61 8.72 9.2 2 6 1015.6 0 19.7 25.3 38.9 102.0 96.4 331.9
08/05 03:00 16.5 62 8.71 9.2 2 7 1015.7 0 19.7 25.4 39.0 102.3 96.6 332.7
08/05 02:50 16.8 60 8.58 9 2 4 1015.8 0 19.4 25.1 38.4 100.6 94.6 325.7
08/05 02:40 17 60 8.68 9.2 6 6 1015.9 0 19.6 25.2 38.7 101.4 95.7 329.3
08/05 02:30 16.9 60 8.63 9.1 4 6 1015.9 0 19.5 25.2 38.5 101.0 95.2 327.5
08/05 02:20 17 59 8.54 8.9 2 4 1015.9 0 19.3 25.0 38.1 100.0 93.9 323.1
08/05 02:10 17.2 59 8.64 9.1 6 7 1016 0 19.5 25.1 38.4 100.7 94.9 326.7
08/05 02:00 17.3 58 8.54 9 6 9 1016 0 19.3 24.9 38.0 99.6 93.5 321.9
08/05 01:50 17.4 58 8.6 9.1 7 9 1016 0 19.4 25.0 38.2 100.1 94.2 324.2
08/05 01:40 17.4 59 8.74 9.3 9 11 1016.1 0 19.7 25.2 38.7 101.5 96.0 330.4
08/05 01:30 17.7 57 8.6 9.1 9 13 1016.2 0 19.4 24.9 38.0 99.7 93.8 323.0
08/05 01:20 18 56 8.6 9.1 7 9 1016.2 0 19.4 24.8 37.9 99.4 93.5 321.8
08/05 01:10 18.2 54 8.39 8.7 9 11 1016.3 0 18.9 24.4 37.0 97.0 90.6 311.9
08/05 01:00 18.4 54 8.49 8.9 9 15 1016.4 0 19.1 24.5 37.3 97.8 91.7 315.4
08/05 00:50 18.6 53 8.43 8.8 9 11 1016.5 0 19.0 24.4 37.0 96.9 90.7 312.1
08/05 00:40 18.8 52 8.37 8.7 7 11 1016.5 0 18.9 24.3 36.7 96.1 89.7 308.7
08/05 00:30 18.8 52 8.37 8.7 6 11 1016.6 0 18.9 24.3 36.7 96.1 89.7 308.8
08/05 00:20 19 51 8.31 8.6 6 7 1016.6 0 18.7 24.1 36.4 95.3 88.8 305.4
08/05 00:10 19.1 51 8.36 8.7 7 9 1016.7 0 18.8 24.2 36.5 95.7 89.3 307.2
08/05 00:00 19.3 50 8.29 8.6 7 13 1016.8 0 18.7 24.0 36.2 94.7 88.2 303.5
07/05 23:50 19.5 50 8.39 8.8 7 7 1016.8 0 18.9 24.1 36.4 95.5 89.2 307.0
07/05 23:40 19.6 49 8.27 8.6 7 9 1016.8 0 18.6 23.9 35.9 94.2 87.6 301.5
07/05 23:30 19.5 50 8.39 8.8 7 13 1016.8 0 18.9 24.1 36.4 95.5 89.2 307.0
07/05 23:20 19.7 50 8.49 9 7 9 1016.9 0 19.1 24.2 36.7 96.3 90.2 310.5
07/05 23:10 19.7 50 8.49 9 7 9 1016.8 0 19.1 24.2 36.7 96.2 90.2 310.5
07/05 23:00 19.9 49 8.42 8.9 7 11 1016.8 0 18.9 24.1 36.4 95.3 89.1 306.7
07/05 22:50 19.8 49 8.37 8.8 7 11 1016.8 0 18.8 24.0 36.2 94.9 88.6 305.0
07/05 22:40 19.9 49 8.42 8.9 6 7 1016.8 0 18.9 24.1 36.4 95.3 89.1 306.7
07/05 22:30 19.9 49 8.42 8.9 6 9 1016.8 0 18.9 24.1 36.4 95.3 89.1 306.7
07/05 22:20 20.2 49 8.57 9.2 6 7 1016.9 0 19.2 24.2 36.8 96.4 90.6 312.0
07/05 22:10 20 50 8.64 9.3 7 11 1016.8 0 19.4 24.4 37.1 97.4 91.7 315.7
07/05 22:00 20.2 49 8.57 9.2 7 11 1016.8 0 19.2 24.2 36.8 96.4 90.6 311.9
07/05 21:50 20.4 49 8.67 9.3 6 9 1016.7 0 19.4 24.3 37.1 97.2 91.6 315.4
07/05 21:40 20.7 48 8.64 9.3 6 9 1016.7 0 19.3 24.2 36.8 96.5 90.9 312.9
07/05 21:30 20.7 47 8.46 9 6 7 1016.6 0 19.0 23.9 36.1 94.7 88.7 305.3
07/05 21:20 20.7 48 8.64 9.3 6 7 1016.6 0 19.3 24.2 36.8 96.5 90.9 312.9
07/05 21:10 20.7 48 8.64 9.3 6 7 1016.6 0 19.3 24.2 36.8 96.5 90.9 312.9
07/05 21:00 20.2 50 8.74 9.5 4 7 1016.5 0 19.6 24.4 37.4 98.1 92.6 319.1
07/05 20:50 20.1 51 8.86 9.7 4 6 1016.5 0 19.8 24.6 37.9 99.4 94.2 324.6
07/05 20:40 20.1 51 8.86 9.7 4 4 1016.4 0 19.8 24.6 37.9 99.4 94.2 324.6
07/05 20:30 20.3 51 8.97 9.8 6 7 1016.3 0 20.1 24.8 38.2 100.2 95.3 328.5
07/05 20:20 20.5 50 8.9 9.7 6 7 1016.2 0 19.9 24.6 37.8 99.3 94.2 324.7
07/05 20:10 20.9 49 8.92 9.8 6 6 1016 0 19.9 24.5 37.7 99.0 94.0 323.8
07/05 20:00 21.3 47 8.76 9.5 6 7 1015.9 0 19.6 24.2 36.9 96.9 91.6 315.5
07/05 19:50 21.6 47 8.91 9.8 6 7 1015.7 0 19.9 24.3 37.3 98.0 93.0 320.5
07/05 19:40 21.6 47 8.91 9.8 6 7 1015.6 0 19.9 24.3 37.3 98.0 93.0 320.5
07/05 19:30 21.7 48 9.16 10.2 4 7 1015.5 0 20.4 24.6 38.2 100.3 95.9 330.7

Last Refresh: 08-May-2026 12:07:20

Bureau of Meteorology